sensor_id;sensor_type;location;lat;lon;timestamp;pressure;altitude;pressure_sealevel;temperature;humidity
16190;BME280;41754;51.498;7.540;2023-07-20T00:01:19;100161.81;;;14.90;91.63
16190;BME280;41754;51.498;7.540;2023-07-20T00:03:47;100160.41;;;14.86;91.48
16190;BME280;41754;51.498;7.540;2023-07-20T00:06:22;100155.38;;;14.82;91.47
16190;BME280;41754;51.498;7.540;2023-07-20T00:08:50;100160.09;;;14.79;91.34
16190;BME280;41754;51.498;7.540;2023-07-20T00:11:18;100161.19;;;14.76;91.45
16190;BME280;41754;51.498;7.540;2023-07-20T00:13:46;100164.50;;;14.69;91.69
16190;BME280;41754;51.498;7.540;2023-07-20T00:16:13;100168.97;;;14.68;91.64
16190;BME280;41754;51.498;7.540;2023-07-20T00:18:43;100165.31;;;14.69;91.71
16190;BME280;41754;51.498;7.540;2023-07-20T00:21:11;100166.03;;;14.71;91.44
16190;BME280;41754;51.498;7.540;2023-07-20T00:23:38;100158.09;;;14.71;91.13
16190;BME280;41754;51.498;7.540;2023-07-20T00:26:06;100159.19;;;14.69;90.97
16190;BME280;41754;51.498;7.540;2023-07-20T00:28:34;100156.16;;;14.73;91.05
16190;BME280;41754;51.498;7.540;2023-07-20T00:31:02;100154.91;;;14.77;90.73
16190;BME280;41754;51.498;7.540;2023-07-20T00:33:30;100154.22;;;14.75;90.60
16190;BME280;41754;51.498;7.540;2023-07-20T00:35:59;100152.84;;;14.81;90.36
16190;BME280;41754;51.498;7.540;2023-07-20T00:38:27;100146.72;;;14.80;90.36
16190;BME280;41754;51.498;7.540;2023-07-20T00:40:55;100154.47;;;14.72;90.50
16190;BME280;41754;51.498;7.540;2023-07-20T00:43:23;100145.03;;;14.79;90.85
16190;BME280;41754;51.498;7.540;2023-07-20T00:45:51;100149.19;;;14.72;90.60
16190;BME280;41754;51.498;7.540;2023-07-20T00:48:19;100153.97;;;14.78;90.57
16190;BME280;41754;51.498;7.540;2023-07-20T00:50:47;100148.09;;;14.75;90.42
16190;BME280;41754;51.498;7.540;2023-07-20T00:53:17;100146.03;;;14.78;90.44
16190;BME280;41754;51.498;7.540;2023-07-20T00:55:45;100152.53;;;14.74;90.39
16190;BME280;41754;51.498;7.540;2023-07-20T00:58:13;100148.66;;;14.78;90.43
16190;BME280;41754;51.498;7.540;2023-07-20T01:00:41;100148.78;;;14.77;90.35
16190;BME280;41754;51.498;7.540;2023-07-20T01:03:08;100150.31;;;14.79;90.40
16190;BME280;41754;51.498;7.540;2023-07-20T01:05:41;100155.31;;;14.73;90.51
16190;BME280;41754;51.498;7.540;2023-07-20T01:08:13;100151.81;;;14.72;90.37
16190;BME280;41754;51.498;7.540;2023-07-20T01:10:52;100148.09;;;14.75;90.09
16190;BME280;41754;51.498;7.540;2023-07-20T01:13:21;100150.13;;;14.71;90.31
16190;BME280;41754;51.498;7.540;2023-07-20T01:15:56;100152.41;;;14.76;90.45
16190;BME280;41754;51.498;7.540;2023-07-20T01:18:24;100145.56;;;14.73;90.37
16190;BME280;41754;51.498;7.540;2023-07-20T01:20:54;100137.09;;;14.79;90.57
16190;BME280;41754;51.498;7.540;2023-07-20T01:23:39;100146.28;;;14.75;90.22
16190;BME280;41754;51.498;7.540;2023-07-20T01:26:36;100139.41;;;14.73;90.05
16190;BME280;41754;51.498;7.540;2023-07-20T01:29:21;100142.47;;;14.68;90.31
16190;BME280;41754;51.498;7.540;2023-07-20T01:31:52;100142.78;;;14.75;90.01
16190;BME280;41754;51.498;7.540;2023-07-20T01:34:22;100146.16;;;14.77;89.98
16190;BME280;41754;51.498;7.540;2023-07-20T01:36:52;100144.72;;;14.73;90.00
16190;BME280;41754;51.498;7.540;2023-07-20T01:39:21;100140.00;;;14.76;89.85
16190;BME280;41754;51.498;7.540;2023-07-20T01:41:49;100143.19;;;14.70;90.00
16190;BME280;41754;51.498;7.540;2023-07-20T01:44:17;100144.16;;;14.58;90.34
16190;BME280;41754;51.498;7.540;2023-07-20T01:46:45;100138.44;;;14.53;90.67
16190;BME280;41754;51.498;7.540;2023-07-20T01:49:14;100139.41;;;14.52;90.81
16190;BME280;41754;51.498;7.540;2023-07-20T01:51:43;100139.66;;;14.48;90.95
16190;BME280;41754;51.498;7.540;2023-07-20T01:54:11;100137.03;;;14.48;91.22
16190;BME280;41754;51.498;7.540;2023-07-20T01:56:40;100133.88;;;14.55;91.14
16190;BME280;41754;51.498;7.540;2023-07-20T01:59:08;100136.00;;;14.61;91.18
16190;BME280;41754;51.498;7.540;2023-07-20T02:01:36;100141.53;;;14.58;90.80
16190;BME280;41754;51.498;7.540;2023-07-20T02:04:05;100131.88;;;14.68;90.55
16190;BME280;41754;51.498;7.540;2023-07-20T02:06:35;100134.66;;;14.67;90.26
16190;BME280;41754;51.498;7.540;2023-07-20T02:09:03;100135.50;;;14.67;90.22
16190;BME280;41754;51.498;7.540;2023-07-20T02:11:31;100128.28;;;14.58;90.32
16190;BME280;41754;51.498;7.540;2023-07-20T02:13:59;100142.06;;;14.52;90.78
16190;BME280;41754;51.498;7.540;2023-07-20T02:16:27;100131.72;;;14.48;90.90
16190;BME280;41754;51.498;7.540;2023-07-20T02:18:56;100134.50;;;14.47;91.18
16190;BME280;41754;51.498;7.540;2023-07-20T02:21:24;100120.00;;;14.41;91.21
16190;BME280;41754;51.498;7.540;2023-07-20T02:23:53;100122.19;;;14.36;91.35
16190;BME280;41754;51.498;7.540;2023-07-20T02:26:21;100111.59;;;14.36;91.52
16190;BME280;41754;51.498;7.540;2023-07-20T02:28:50;100117.72;;;14.37;91.28
16190;BME280;41754;51.498;7.540;2023-07-20T02:31:18;100121.66;;;14.42;91.30
16190;BME280;41754;51.498;7.540;2023-07-20T02:33:46;100114.09;;;14.38;91.28
16190;BME280;41754;51.498;7.540;2023-07-20T02:36:13;100115.44;;;14.32;91.08
16190;BME280;41754;51.498;7.540;2023-07-20T02:38:45;100121.25;;;14.26;91.56
16190;BME280;41754;51.498;7.540;2023-07-20T02:41:14;100118.81;;;14.34;91.25
16190;BME280;41754;51.498;7.540;2023-07-20T02:43:42;100119.78;;;14.33;91.24
16190;BME280;41754;51.498;7.540;2023-07-20T02:46:10;100121.31;;;14.36;91.28
16190;BME280;41754;51.498;7.540;2023-07-20T02:48:38;100118.09;;;14.32;91.63
16190;BME280;41754;51.498;7.540;2023-07-20T02:51:05;100125.59;;;14.48;91.23
16190;BME280;41754;51.498;7.540;2023-07-20T02:53:34;100130.28;;;14.44;91.09
16190;BME280;41754;51.498;7.540;2023-07-20T02:56:02;100133.41;;;14.50;91.16
16190;BME280;41754;51.498;7.540;2023-07-20T02:58:34;100142.38;;;14.58;91.06
16190;BME280;41754;51.498;7.540;2023-07-20T03:01:03;100151.53;;;14.54;90.98
16190;BME280;41754;51.498;7.540;2023-07-20T03:03:31;100153.59;;;14.62;90.79
16190;BME280;41754;51.498;7.540;2023-07-20T03:06:05;100152.97;;;14.58;90.90
16190;BME280;41754;51.498;7.540;2023-07-20T03:08:35;100155.75;;;14.57;91.33
16190;BME280;41754;51.498;7.540;2023-07-20T03:11:03;100165.63;;;14.55;91.18
16190;BME280;41754;51.498;7.540;2023-07-20T03:13:32;100166.34;;;14.57;91.91
16190;BME280;41754;51.498;7.540;2023-07-20T03:16:00;100160.59;;;14.52;92.21
16190;BME280;41754;51.498;7.540;2023-07-20T03:18:28;100156.97;;;14.53;92.18
16190;BME280;41754;51.498;7.540;2023-07-20T03:20:57;100154.31;;;14.53;91.88
16190;BME280;41754;51.498;7.540;2023-07-20T03:23:25;100158.19;;;14.48;92.32
16190;BME280;41754;51.498;7.540;2023-07-20T03:25:53;100161.09;;;14.45;92.71
16190;BME280;41754;51.498;7.540;2023-07-20T03:28:22;100165.44;;;14.46;93.16
16190;BME280;41754;51.498;7.540;2023-07-20T03:30:54;100157.41;;;14.37;93.60
16190;BME280;41754;51.498;7.540;2023-07-20T03:33:25;100161.16;;;14.34;94.38
16190;BME280;41754;51.498;7.540;2023-07-20T03:35:53;100164.84;;;14.43;94.43
16190;BME280;41754;51.498;7.540;2023-07-20T03:38:21;100155.34;;;14.40;94.40
16190;BME280;41754;51.498;7.540;2023-07-20T03:40:50;100162.78;;;14.46;94.48
16190;BME280;41754;51.498;7.540;2023-07-20T03:43:18;100164.56;;;14.46;94.61
16190;BME280;41754;51.498;7.540;2023-07-20T03:45:47;100163.88;;;14.44;94.75
16190;BME280;41754;51.498;7.540;2023-07-20T03:48:18;100160.72;;;14.50;94.72
16190;BME280;41754;51.498;7.540;2023-07-20T03:50:48;100159.88;;;14.50;94.63
16190;BME280;41754;51.498;7.540;2023-07-20T03:53:17;100160.13;;;14.46;94.42
16190;BME280;41754;51.498;7.540;2023-07-20T03:55:45;100160.38;;;14.43;94.42
16190;BME280;41754;51.498;7.540;2023-07-20T03:58:13;100166.63;;;14.42;94.41
16190;BME280;41754;51.498;7.540;2023-07-20T04:00:44;100161.22;;;14.44;94.57
16190;BME280;41754;51.498;7.540;2023-07-20T04:03:12;100162.13;;;14.54;94.75
16190;BME280;41754;51.498;7.540;2023-07-20T04:05:41;100166.34;;;14.57;94.63
16190;BME280;41754;51.498;7.540;2023-07-20T04:08:09;100167.28;;;14.56;94.22
16190;BME280;41754;51.498;7.540;2023-07-20T04:10:38;100173.28;;;14.58;94.54
16190;BME280;41754;51.498;7.540;2023-07-20T04:13:06;100171.41;;;14.60;94.37
16190;BME280;41754;51.498;7.540;2023-07-20T04:15:34;100167.28;;;14.67;94.26
16190;BME280;41754;51.498;7.540;2023-07-20T04:18:02;100175.59;;;14.62;94.24
16190;BME280;41754;51.498;7.540;2023-07-20T04:20:31;100165.00;;;14.62;94.18
16190;BME280;41754;51.498;7.540;2023-07-20T04:23:00;100175.47;;;14.64;94.02
16190;BME280;41754;51.498;7.540;2023-07-20T04:25:29;100176.28;;;14.64;94.03
16190;BME280;41754;51.498;7.540;2023-07-20T04:28:00;100178.69;;;14.68;94.03
16190;BME280;41754;51.498;7.540;2023-07-20T04:30:28;100180.38;;;14.69;94.08
16190;BME280;41754;51.498;7.540;2023-07-20T04:32:58;100177.47;;;14.72;94.42
16190;BME280;41754;51.498;7.540;2023-07-20T04:35:46;100181.66;;;14.74;94.46
16190;BME280;41754;51.498;7.540;2023-07-20T04:38:18;100188.25;;;14.80;94.42
16190;BME280;41754;51.498;7.540;2023-07-20T04:40:51;100189.72;;;14.73;94.46
16190;BME280;41754;51.498;7.540;2023-07-20T04:43:19;100197.81;;;14.71;94.67
16190;BME280;41754;51.498;7.540;2023-07-20T04:45:47;100197.88;;;14.81;94.55
16190;BME280;41754;51.498;7.540;2023-07-20T04:48:16;100191.28;;;14.75;94.49
16190;BME280;41754;51.498;7.540;2023-07-20T04:50:52;100193.63;;;14.69;94.17
16190;BME280;41754;51.498;7.540;2023-07-20T04:53:22;100196.00;;;14.72;94.20
16190;BME280;41754;51.498;7.540;2023-07-20T04:55:50;100196.53;;;14.65;94.13
16190;BME280;41754;51.498;7.540;2023-07-20T04:58:21;100206.06;;;14.78;94.14
16190;BME280;41754;51.498;7.540;2023-07-20T05:00:51;100208.38;;;14.71;93.87
16190;BME280;41754;51.498;7.540;2023-07-20T05:03:19;100201.81;;;14.65;93.53
16190;BME280;41754;51.498;7.540;2023-07-20T05:05:48;100213.22;;;14.66;93.34
16190;BME280;41754;51.498;7.540;2023-07-20T05:08:16;100206.16;;;14.67;93.25
16190;BME280;41754;51.498;7.540;2023-07-20T05:10:47;100199.63;;;14.71;93.25
16190;BME280;41754;51.498;7.540;2023-07-20T05:13:15;100207.09;;;14.65;93.29
16190;BME280;41754;51.498;7.540;2023-07-20T05:15:43;100204.84;;;14.61;92.41
16190;BME280;41754;51.498;7.540;2023-07-20T05:18:14;100207.13;;;14.54;93.10
16190;BME280;41754;51.498;7.540;2023-07-20T05:20:46;100207.50;;;14.61;92.85
16190;BME280;41754;51.498;7.540;2023-07-20T05:23:17;100205.56;;;14.63;93.09
16190;BME280;41754;51.498;7.540;2023-07-20T05:25:47;100203.88;;;14.62;93.11
16190;BME280;41754;51.498;7.540;2023-07-20T05:28:15;100211.03;;;14.71;93.20
16190;BME280;41754;51.498;7.540;2023-07-20T05:30:43;100212.22;;;14.78;92.67
16190;BME280;41754;51.498;7.540;2023-07-20T05:33:10;100222.47;;;14.93;92.50
16190;BME280;41754;51.498;7.540;2023-07-20T05:35:39;100219.00;;;14.92;91.73
16190;BME280;41754;51.498;7.540;2023-07-20T05:38:07;100223.47;;;14.92;91.07
16190;BME280;41754;51.498;7.540;2023-07-20T05:40:37;100221.97;;;14.99;91.24
16190;BME280;41754;51.498;7.540;2023-07-20T05:43:06;100227.00;;;15.02;90.63
16190;BME280;41754;51.498;7.540;2023-07-20T05:45:34;100222.59;;;14.91;90.22
16190;BME280;41754;51.498;7.540;2023-07-20T05:48:02;100228.50;;;14.95;90.35
16190;BME280;41754;51.498;7.540;2023-07-20T05:50:30;100235.72;;;14.93;89.83
16190;BME280;41754;51.498;7.540;2023-07-20T05:52:58;100240.75;;;14.96;89.42
16190;BME280;41754;51.498;7.540;2023-07-20T05:55:26;100240.00;;;15.05;89.48
16190;BME280;41754;51.498;7.540;2023-07-20T05:57:54;100237.66;;;15.12;89.04
16190;BME280;41754;51.498;7.540;2023-07-20T06:00:23;100246.19;;;15.15;89.23
16190;BME280;41754;51.498;7.540;2023-07-20T06:02:53;100248.41;;;15.10;89.48
16190;BME280;41754;51.498;7.540;2023-07-20T06:05:21;100255.72;;;15.28;89.07
16190;BME280;41754;51.498;7.540;2023-07-20T06:07:54;100257.94;;;15.23;88.73
16190;BME280;41754;51.498;7.540;2023-07-20T06:10:24;100261.78;;;15.39;88.52
16190;BME280;41754;51.498;7.540;2023-07-20T06:12:53;100263.91;;;15.46;88.48
16190;BME280;41754;51.498;7.540;2023-07-20T06:15:27;100267.84;;;15.51;87.03
16190;BME280;41754;51.498;7.540;2023-07-20T06:17:55;100269.41;;;15.54;86.26
16190;BME280;41754;51.498;7.540;2023-07-20T06:20:25;100271.25;;;15.63;86.58
16190;BME280;41754;51.498;7.540;2023-07-20T06:22:52;100267.75;;;15.63;85.19
16190;BME280;41754;51.498;7.540;2023-07-20T06:25:20;100273.25;;;15.71;85.17
16190;BME280;41754;51.498;7.540;2023-07-20T06:27:49;100274.06;;;15.71;84.97
16190;BME280;41754;51.498;7.540;2023-07-20T06:30:18;100269.97;;;15.79;85.35
16190;BME280;41754;51.498;7.540;2023-07-20T06:32:47;100280.75;;;15.97;85.30
16190;BME280;41754;51.498;7.540;2023-07-20T06:35:16;100279.94;;;16.06;83.77
16190;BME280;41754;51.498;7.540;2023-07-20T06:37:44;100277.16;;;16.07;83.73
16190;BME280;41754;51.498;7.540;2023-07-20T06:40:12;100277.91;;;15.88;82.81
16190;BME280;41754;51.498;7.540;2023-07-20T06:42:43;100274.56;;;15.86;83.61
16190;BME280;41754;51.498;7.540;2023-07-20T06:45:14;100279.44;;;15.81;84.03
16190;BME280;41754;51.498;7.540;2023-07-20T06:47:42;100283.41;;;15.97;84.81
16190;BME280;41754;51.498;7.540;2023-07-20T06:50:12;100279.25;;;16.13;83.64
16190;BME280;41754;51.498;7.540;2023-07-20T06:52:44;100279.25;;;16.13;83.70
16190;BME280;41754;51.498;7.540;2023-07-20T06:55:14;100288.22;;;16.32;83.50
16190;BME280;41754;51.498;7.540;2023-07-20T06:57:47;100283.19;;;16.39;80.42
16190;BME280;41754;51.498;7.540;2023-07-20T07:00:15;100278.63;;;16.70;79.91
16190;BME280;41754;51.498;7.540;2023-07-20T07:02:43;100269.81;;;16.99;79.52
16190;BME280;41754;51.498;7.540;2023-07-20T07:05:17;100284.66;;;17.01;79.42
16190;BME280;41754;51.498;7.540;2023-07-20T07:07:47;100291.66;;;16.93;78.61
16190;BME280;41754;51.498;7.540;2023-07-20T07:10:15;100285.75;;;16.60;78.59
16190;BME280;41754;51.498;7.540;2023-07-20T07:12:43;100282.38;;;16.48;78.44
16190;BME280;41754;51.498;7.540;2023-07-20T07:15:11;100288.09;;;16.33;78.77
16190;BME280;41754;51.498;7.540;2023-07-20T07:17:39;100289.31;;;16.10;79.60
16190;BME280;41754;51.498;7.540;2023-07-20T07:20:08;100296.00;;;16.04;79.45
16190;BME280;41754;51.498;7.540;2023-07-20T07:22:47;100291.78;;;16.02;79.96
16190;BME280;41754;51.498;7.540;2023-07-20T07:25:16;100288.13;;;15.93;79.65
16190;BME280;41754;51.498;7.540;2023-07-20T07:27:49;100287.19;;;15.73;79.12
16190;BME280;41754;51.498;7.540;2023-07-20T07:30:18;100287.72;;;15.67;80.15
16190;BME280;41754;51.498;7.540;2023-07-20T07:32:46;100297.81;;;16.04;79.66
16190;BME280;41754;51.498;7.540;2023-07-20T07:35:14;100298.91;;;16.81;75.82
16190;BME280;41754;51.498;7.540;2023-07-20T07:37:41;100302.50;;;17.19;75.94
16190;BME280;41754;51.498;7.540;2023-07-20T07:40:30;100302.22;;;17.22;72.99
16190;BME280;41754;51.498;7.540;2023-07-20T07:42:58;100307.19;;;17.54;74.51
16190;BME280;41754;51.498;7.540;2023-07-20T07:45:26;100310.75;;;17.35;70.91
16190;BME280;41754;51.498;7.540;2023-07-20T07:47:54;100305.34;;;16.98;71.97
16190;BME280;41754;51.498;7.540;2023-07-20T07:50:22;100316.81;;;17.18;72.55
16190;BME280;41754;51.498;7.540;2023-07-20T07:52:50;100306.25;;;17.36;73.01
16190;BME280;41754;51.498;7.540;2023-07-20T07:55:17;100310.44;;;17.86;70.89
16190;BME280;41754;51.498;7.540;2023-07-20T07:57:47;100308.97;;;18.29;70.18
16190;BME280;41754;51.498;7.540;2023-07-20T08:00:16;100313.47;;;18.46;67.35
16190;BME280;41754;51.498;7.540;2023-07-20T08:02:46;100309.47;;;18.96;67.36
16190;BME280;41754;51.498;7.540;2023-07-20T08:05:15;100304.41;;;18.75;67.11
16190;BME280;41754;51.498;7.540;2023-07-20T08:07:43;100310.00;;;18.64;67.58
16190;BME280;41754;51.498;7.540;2023-07-20T08:10:12;100319.88;;;18.71;66.64
16190;BME280;41754;51.498;7.540;2023-07-20T08:12:39;100316.81;;;18.30;68.69
16190;BME280;41754;51.498;7.540;2023-07-20T08:15:10;100317.69;;;18.03;69.11
16190;BME280;41754;51.498;7.540;2023-07-20T08:17:38;100320.31;;;17.66;68.07
16190;BME280;41754;51.498;7.540;2023-07-20T08:20:08;100327.78;;;17.52;71.48
16190;BME280;41754;51.498;7.540;2023-07-20T08:22:38;100333.22;;;17.51;71.20
16190;BME280;41754;51.498;7.540;2023-07-20T08:25:08;100334.22;;;17.50;70.69
16190;BME280;41754;51.498;7.540;2023-07-20T08:27:36;100334.03;;;17.61;71.18
16190;BME280;41754;51.498;7.540;2023-07-20T08:30:05;100329.09;;;17.76;69.46
16190;BME280;41754;51.498;7.540;2023-07-20T08:32:35;100342.50;;;17.47;69.43
16190;BME280;41754;51.498;7.540;2023-07-20T08:35:05;100344.50;;;17.25;69.26
16190;BME280;41754;51.498;7.540;2023-07-20T08:37:33;100347.75;;;16.99;71.25
16190;BME280;41754;51.498;7.540;2023-07-20T08:40:01;100347.16;;;16.96;70.78
16190;BME280;41754;51.498;7.540;2023-07-20T08:42:31;100350.78;;;17.24;71.86
16190;BME280;41754;51.498;7.540;2023-07-20T08:44:59;100342.91;;;17.99;69.08
16190;BME280;41754;51.498;7.540;2023-07-20T08:47:28;100346.09;;;18.03;66.10
16190;BME280;41754;51.498;7.540;2023-07-20T08:49:58;100348.25;;;18.90;63.18
16190;BME280;41754;51.498;7.540;2023-07-20T08:52:27;100348.78;;;19.38;62.98
16190;BME280;41754;51.498;7.540;2023-07-20T08:54:55;100344.34;;;19.47;62.64
16190;BME280;41754;51.498;7.540;2023-07-20T08:57:23;100344.06;;;18.42;61.97
16190;BME280;41754;51.498;7.540;2023-07-20T08:59:52;100348.13;;;17.81;62.30
16190;BME280;41754;51.498;7.540;2023-07-20T09:02:21;100349.22;;;18.26;58.91
16190;BME280;41754;51.498;7.540;2023-07-20T09:04:52;100351.94;;;18.80;58.35
16190;BME280;41754;51.498;7.540;2023-07-20T09:07:21;100342.41;;;19.57;56.58
16190;BME280;41754;51.498;7.540;2023-07-20T09:09:50;100344.22;;;19.75;58.19
16190;BME280;41754;51.498;7.540;2023-07-20T09:12:18;100341.03;;;20.14;56.43
16190;BME280;41754;51.498;7.540;2023-07-20T09:14:48;100345.00;;;20.52;55.08
16190;BME280;41754;51.498;7.540;2023-07-20T09:17:16;100337.50;;;20.05;55.41
16190;BME280;41754;51.498;7.540;2023-07-20T09:19:46;100337.75;;;20.20;54.58
16190;BME280;41754;51.498;7.540;2023-07-20T09:22:14;100346.06;;;20.68;53.61
16190;BME280;41754;51.498;7.540;2023-07-20T09:24:45;100343.34;;;20.51;55.11
16190;BME280;41754;51.498;7.540;2023-07-20T09:27:13;100346.59;;;20.71;50.10
16190;BME280;41754;51.498;7.540;2023-07-20T09:29:47;100348.94;;;20.66;52.54
16190;BME280;41754;51.498;7.540;2023-07-20T09:32:18;100344.91;;;20.79;50.54
16190;BME280;41754;51.498;7.540;2023-07-20T09:34:51;100349.94;;;21.06;53.63
16190;BME280;41754;51.498;7.540;2023-07-20T09:37:22;100343.47;;;20.33;53.03
16190;BME280;41754;51.498;7.540;2023-07-20T09:39:52;100340.50;;;20.53;51.28
16190;BME280;41754;51.498;7.540;2023-07-20T09:42:23;100345.13;;;19.92;54.01
16190;BME280;41754;51.498;7.540;2023-07-20T09:44:56;100334.00;;;19.44;52.82
16190;BME280;41754;51.498;7.540;2023-07-20T09:47:24;100336.72;;;19.26;51.40
16190;BME280;41754;51.498;7.540;2023-07-20T09:49:58;100335.91;;;19.78;52.08
16190;BME280;41754;51.498;7.540;2023-07-20T09:52:30;100341.41;;;20.70;50.23
16190;BME280;41754;51.498;7.540;2023-07-20T09:55:03;100346.75;;;21.03;47.26
16190;BME280;41754;51.498;7.540;2023-07-20T09:57:32;100337.59;;;21.13;48.84
16190;BME280;41754;51.498;7.540;2023-07-20T10:00:00;100339.41;;;21.54;46.66
16190;BME280;41754;51.498;7.540;2023-07-20T10:02:33;100347.94;;;21.49;47.38
16190;BME280;41754;51.498;7.540;2023-07-20T10:05:05;100346.44;;;21.47;45.60
16190;BME280;41754;51.498;7.540;2023-07-20T10:07:36;100344.63;;;20.39;47.60
16190;BME280;41754;51.498;7.540;2023-07-20T10:10:09;100344.00;;;19.94;47.22
16190;BME280;41754;51.498;7.540;2023-07-20T10:12:39;100340.16;;;20.39;44.25
16190;BME280;41754;51.498;7.540;2023-07-20T10:15:11;100342.22;;;20.70;44.65
16190;BME280;41754;51.498;7.540;2023-07-20T10:17:49;100344.25;;;21.34;43.90
16190;BME280;41754;51.498;7.540;2023-07-20T10:20:21;100339.56;;;21.28;40.67
16190;BME280;41754;51.498;7.540;2023-07-20T10:22:53;100341.91;;;21.39;42.73
16190;BME280;41754;51.498;7.540;2023-07-20T10:25:24;100337.59;;;21.94;42.05
16190;BME280;41754;51.498;7.540;2023-07-20T10:27:53;100328.97;;;21.76;43.09
16190;BME280;41754;51.498;7.540;2023-07-20T10:30:21;100337.28;;;21.89;46.52
16190;BME280;41754;51.498;7.540;2023-07-20T10:32:50;100329.09;;;21.91;44.11
16190;BME280;41754;51.498;7.540;2023-07-20T10:35:19;100326.56;;;21.97;44.55
16190;BME280;41754;51.498;7.540;2023-07-20T10:37:51;100327.13;;;21.76;44.28
16190;BME280;41754;51.498;7.540;2023-07-20T10:40:32;100322.00;;;22.06;44.66
16190;BME280;41754;51.498;7.540;2023-07-20T10:43:02;100316.97;;;22.42;41.02
16190;BME280;41754;51.498;7.540;2023-07-20T10:45:39;100316.56;;;22.22;42.01
16190;BME280;41754;51.498;7.540;2023-07-20T10:48:14;100312.34;;;22.83;39.89
16190;BME280;41754;51.498;7.540;2023-07-20T10:50:43;100322.88;;;23.45;39.52
16190;BME280;41754;51.498;7.540;2023-07-20T10:53:13;100311.47;;;23.05;38.98
16190;BME280;41754;51.498;7.540;2023-07-20T10:55:43;100313.31;;;23.43;38.10
16190;BME280;41754;51.498;7.540;2023-07-20T10:58:14;100310.53;;;23.81;38.62
16190;BME280;41754;51.498;7.540;2023-07-20T11:01:00;100312.94;;;23.16;40.11
16190;BME280;41754;51.498;7.540;2023-07-20T11:03:31;100316.28;;;22.09;42.55
16190;BME280;41754;51.498;7.540;2023-07-20T11:06:30;100325.78;;;21.80;43.16
16190;BME280;41754;51.498;7.540;2023-07-20T11:09:08;100311.53;;;22.19;41.62
16190;BME280;41754;51.498;7.540;2023-07-20T11:11:40;100319.81;;;25.59;36.59
16190;BME280;41754;51.498;7.540;2023-07-20T11:14:10;100315.50;;;27.15;31.67
16190;BME280;41754;51.498;7.540;2023-07-20T11:16:41;100297.72;;;25.77;33.46
16190;BME280;41754;51.498;7.540;2023-07-20T11:19:17;100310.34;;;27.20;34.29
16190;BME280;41754;51.498;7.540;2023-07-20T11:21:50;100309.47;;;27.53;30.22
16190;BME280;41754;51.498;7.540;2023-07-20T11:24:29;100305.78;;;24.64;34.59
16190;BME280;41754;51.498;7.540;2023-07-20T11:26:59;100305.94;;;26.04;32.53
16190;BME280;41754;51.498;7.540;2023-07-20T11:29:27;100309.66;;;25.05;34.69
16190;BME280;41754;51.498;7.540;2023-07-20T11:31:59;100292.94;;;22.95;38.99
16190;BME280;41754;51.498;7.540;2023-07-20T11:34:30;100291.13;;;22.50;38.83
16190;BME280;41754;51.498;7.540;2023-07-20T11:36:58;100293.69;;;27.23;32.18
16190;BME280;41754;51.498;7.540;2023-07-20T11:39:29;100290.81;;;28.99;27.45
16190;BME280;41754;51.498;7.540;2023-07-20T11:41:58;100291.84;;;29.04;26.01
16190;BME280;41754;51.498;7.540;2023-07-20T11:44:27;100291.59;;;28.56;28.49
16190;BME280;41754;51.498;7.540;2023-07-20T11:47:03;100290.28;;;30.26;26.52
16190;BME280;41754;51.498;7.540;2023-07-20T11:49:34;100289.56;;;28.06;28.00
16190;BME280;41754;51.498;7.540;2023-07-20T11:52:04;100287.53;;;29.22;27.27
16190;BME280;41754;51.498;7.540;2023-07-20T11:54:34;100289.06;;;29.55;27.29
16190;BME280;41754;51.498;7.540;2023-07-20T11:57:04;100280.38;;;29.46;26.31
16190;BME280;41754;51.498;7.540;2023-07-20T11:59:33;100278.63;;;26.14;30.86
16190;BME280;41754;51.498;7.540;2023-07-20T12:02:01;100284.47;;;24.48;31.93
16190;BME280;41754;51.498;7.540;2023-07-20T12:04:31;100286.41;;;28.16;27.24
16190;BME280;41754;51.498;7.540;2023-07-20T12:06:59;100273.03;;;29.90;24.13
16190;BME280;41754;51.498;7.540;2023-07-20T12:09:27;100274.97;;;28.45;28.36
16190;BME280;41754;51.498;7.540;2023-07-20T12:12:16;100276.84;;;28.45;27.43
16190;BME280;41754;51.498;7.540;2023-07-20T12:14:46;100281.13;;;25.39;31.64
16190;BME280;41754;51.498;7.540;2023-07-20T12:17:14;100275.19;;;23.92;34.35
16190;BME280;41754;51.498;7.540;2023-07-20T12:19:42;100270.41;;;24.09;33.76
16190;BME280;41754;51.498;7.540;2023-07-20T12:22:09;100271.88;;;28.03;28.45
16190;BME280;41754;51.498;7.540;2023-07-20T12:24:38;100272.75;;;27.97;27.90
16190;BME280;41754;51.498;7.540;2023-07-20T12:27:06;100272.22;;;25.73;31.03
16190;BME280;41754;51.498;7.540;2023-07-20T12:29:35;100270.34;;;24.02;33.56
16190;BME280;41754;51.498;7.540;2023-07-20T12:32:05;100267.13;;;23.92;36.33
16190;BME280;41754;51.498;7.540;2023-07-20T12:34:33;100265.97;;;24.01;35.00
16190;BME280;41754;51.498;7.540;2023-07-20T12:37:03;100266.44;;;26.44;31.70
16190;BME280;41754;51.498;7.540;2023-07-20T12:39:31;100263.41;;;27.93;27.14
16190;BME280;41754;51.498;7.540;2023-07-20T12:41:59;100254.66;;;26.65;27.82
16190;BME280;41754;51.498;7.540;2023-07-20T12:44:27;100258.31;;;28.42;27.13
16190;BME280;41754;51.498;7.540;2023-07-20T12:46:57;100254.13;;;29.84;23.64
16190;BME280;41754;51.498;7.540;2023-07-20T12:49:25;100249.88;;;27.01;29.16
16190;BME280;41754;51.498;7.540;2023-07-20T12:51:52;100249.72;;;25.52;30.74
16190;BME280;41754;51.498;7.540;2023-07-20T12:54:20;100255.22;;;25.09;31.98
16190;BME280;41754;51.498;7.540;2023-07-20T12:56:48;100257.03;;;25.30;31.08
16190;BME280;41754;51.498;7.540;2023-07-20T12:59:19;100244.66;;;26.59;30.40
16190;BME280;41754;51.498;7.540;2023-07-20T13:01:47;100242.78;;;27.27;27.42
16190;BME280;41754;51.498;7.540;2023-07-20T13:04:16;100251.69;;;25.37;29.50